createdAt,value
2022-08-17T00:01:51.754Z,12.80
2022-08-17T00:04:40.392Z,10.00
2022-08-17T00:07:27.364Z,11.20
2022-08-17T00:10:14.784Z,11.70
2022-08-17T00:13:09.503Z,11.00
2022-08-17T00:16:00.022Z,11.60
2022-08-17T00:19:01.363Z,10.70
2022-08-17T00:22:33.039Z,11.70
2022-08-17T00:25:08.300Z,10.60
2022-08-17T00:27:55.952Z,14.70
2022-08-17T00:30:51.368Z,11.20
2022-08-17T00:33:42.560Z,11.80
2022-08-17T00:36:29.442Z,11.60
2022-08-17T00:39:16.579Z,10.00
2022-08-17T00:42:14.251Z,11.10
2022-08-17T00:45:04.587Z,11.90
2022-08-17T00:47:51.677Z,10.60
2022-08-17T00:50:45.253Z,10.00
2022-08-17T00:53:37.535Z,11.30
2022-08-17T00:56:31.722Z,13.20
2022-08-17T00:59:23.352Z,14.30
2022-08-17T01:02:14.919Z,14.40
2022-08-17T01:07:53.199Z,12.20
2022-08-17T01:10:58.765Z,12.80
2022-08-17T01:13:49.276Z,12.10
2022-08-17T01:16:37.602Z,13.50
2022-08-17T01:19:30.698Z,13.60
2022-08-17T01:22:23.392Z,10.20
2022-08-17T01:25:12.686Z,11.00
2022-08-17T01:27:59.758Z,9.90
2022-08-17T01:30:56.978Z,11.30
2022-08-17T01:33:46.079Z,12.90
2022-08-17T01:36:32.867Z,12.80
2022-08-17T01:39:26.350Z,11.50
2022-08-17T01:42:20.627Z,13.60
2022-08-17T01:45:18.036Z,14.00
2022-08-17T01:48:05.016Z,11.40
2022-08-17T01:50:52.736Z,12.50
2022-08-17T01:53:43.125Z,11.30
2022-08-17T01:56:31.806Z,11.10
2022-08-17T01:59:20.359Z,11.20
2022-08-17T02:02:07.705Z,11.50
2022-08-17T02:04:54.494Z,11.30
2022-08-17T02:07:59.581Z,12.90
2022-08-17T02:10:49.548Z,22.70
2022-08-17T02:13:38.293Z,11.50
2022-08-17T02:16:25.310Z,11.40
2022-08-17T02:19:16.171Z,15.90
2022-08-17T02:22:03.556Z,12.90
2022-08-17T02:24:59.537Z,12.60
2022-08-17T02:27:48.516Z,11.00
2022-08-17T02:30:59.224Z,10.90
2022-08-17T02:33:43.785Z,9.70
2022-08-17T02:36:31.530Z,10.40
2022-08-17T02:39:18.705Z,10.50
2022-08-17T02:42:06.020Z,12.60
2022-08-17T02:44:52.581Z,11.50
2022-08-17T02:47:40.743Z,10.30
2022-08-17T02:50:27.826Z,12.20
2022-08-17T02:53:14.844Z,11.30
2022-08-17T02:56:01.879Z,10.50
2022-08-17T02:58:49.476Z,9.90
2022-08-17T03:01:36.542Z,11.00
2022-08-17T03:04:23.604Z,10.80
2022-08-17T03:07:11.910Z,10.30
2022-08-17T03:09:59.613Z,10.60
2022-08-17T03:12:48.043Z,11.30
2022-08-17T03:15:35.711Z,18.50
2022-08-17T03:18:26.373Z,26.40
2022-08-17T03:21:13.464Z,9.90
2022-08-17T03:24:00.486Z,12.30
2022-08-17T03:26:47.675Z,16.90
2022-08-17T03:29:34.973Z,19.90
2022-08-17T03:32:22.051Z,11.10
2022-08-17T03:35:09.464Z,12.50
2022-08-17T03:38:01.296Z,10.50
2022-08-17T03:40:57.472Z,9.90
2022-08-17T03:43:46.601Z,10.50
2022-08-17T03:46:52.190Z,11.20
2022-08-17T03:50:14.417Z,9.60
2022-08-17T03:53:25.395Z,9.70
2022-08-17T03:56:31.399Z,10.10
2022-08-17T03:59:22.285Z,9.60
2022-08-17T04:02:13.450Z,11.20
2022-08-17T04:05:02.273Z,11.20
2022-08-17T04:07:49.200Z,9.80
2022-08-17T04:10:38.395Z,9.10
2022-08-17T04:13:32.060Z,8.80
2022-08-17T04:16:18.800Z,13.10
2022-08-17T04:19:06.036Z,9.60
2022-08-17T04:21:58.170Z,11.90
2022-08-17T04:27:32.238Z,11.90
2022-08-17T04:30:19.378Z,8.50
2022-08-17T04:33:10.243Z,9.20
2022-08-17T04:36:02.330Z,9.10
2022-08-17T04:38:49.294Z,8.80
2022-08-17T04:41:55.711Z,9.30
2022-08-17T04:44:43.416Z,11.40
2022-08-17T04:47:30.120Z,9.50
2022-08-17T04:50:17.338Z,10.10
2022-08-17T04:53:04.388Z,11.80
2022-08-17T04:55:55.363Z,11.40
2022-08-17T04:58:51.143Z,10.50
2022-08-17T05:01:40.209Z,13.40
2022-08-17T05:04:34.634Z,15.90
2022-08-17T05:07:24.650Z,12.80
2022-08-17T05:10:13.233Z,11.40
2022-08-17T05:13:09.008Z,12.30
2022-08-17T05:15:59.901Z,12.80
2022-08-17T05:18:46.872Z,12.30
2022-08-17T05:21:33.758Z,13.40
2022-08-17T05:24:43.109Z,13.20
2022-08-17T05:27:27.913Z,12.80
2022-08-17T05:30:24.403Z,13.80
2022-08-17T05:33:16.921Z,23.90
2022-08-17T05:36:07.263Z,15.10
2022-08-17T05:38:54.221Z,20.00
2022-08-17T05:41:41.118Z,18.90
2022-08-17T05:44:28.741Z,15.30
2022-08-17T05:47:15.594Z,20.30
2022-08-17T05:50:02.890Z,16.20
2022-08-17T05:53:30.867Z,16.70
2022-08-17T05:56:48.238Z,19.80
2022-08-17T05:59:55.971Z,21.10
2022-08-17T06:03:30.776Z,20.80
2022-08-17T06:06:46.884Z,18.00
2022-08-17T06:09:52.444Z,18.70
2022-08-17T06:12:48.330Z,20.90
2022-08-17T06:15:56.633Z,28.90
2022-08-17T06:18:52.194Z,26.60
2022-08-17T06:21:44.949Z,21.70
2022-08-17T06:25:04.059Z,20.40
2022-08-17T06:28:04.904Z,18.30
2022-08-17T06:31:00.714Z,19.40
2022-08-17T06:33:50.503Z,16.40
2022-08-17T06:36:56.824Z,17.30
2022-08-17T06:40:09.402Z,17.00
2022-08-17T06:43:27.662Z,18.10
2022-08-17T06:46:32.029Z,15.10
2022-08-17T06:49:26.363Z,14.30
2022-08-17T06:52:45.546Z,12.80
2022-08-17T06:56:04.688Z,13.80
2022-08-17T06:58:57.630Z,14.80
2022-08-17T07:01:47.479Z,12.80
2022-08-17T07:04:35.585Z,14.80
2022-08-17T07:07:41.561Z,15.80
2022-08-17T07:10:36.323Z,15.80
2022-08-17T07:13:52.491Z,16.50
2022-08-17T07:16:45.484Z,15.60
2022-08-17T07:19:35.189Z,13.30
2022-08-17T07:22:55.251Z,17.40
2022-08-17T07:25:47.236Z,14.10
2022-08-17T07:28:36.163Z,14.00
2022-08-17T07:31:26.336Z,12.80
2022-08-17T07:34:14.762Z,13.90
2022-08-17T07:37:05.410Z,12.60
2022-08-17T07:39:59.148Z,16.50
2022-08-17T07:43:23.587Z,13.80
2022-08-17T07:46:39.627Z,14.30
2022-08-17T07:49:34.361Z,13.60
2022-08-17T07:52:51.881Z,13.10
2022-08-17T07:55:41.621Z,13.40
2022-08-17T07:58:28.637Z,13.80
2022-08-17T08:01:15.683Z,13.40
2022-08-17T08:04:59.282Z,12.30
2022-08-17T08:07:50.678Z,13.60
2022-08-17T08:10:45.315Z,13.20
2022-08-17T08:13:32.889Z,11.60
2022-08-17T08:16:29.697Z,11.70
2022-08-17T08:19:20.874Z,11.90
2022-08-17T08:22:35.482Z,12.40
2022-08-17T08:25:30.501Z,11.50
2022-08-17T08:28:38.696Z,10.70
2022-08-17T08:31:42.517Z,9.00
2022-08-17T08:35:18.195Z,13.00
2022-08-17T08:38:14.604Z,9.30
2022-08-17T08:41:31.421Z,9.80
2022-08-17T08:45:00.952Z,9.40
2022-08-17T08:48:05.527Z,12.50
2022-08-17T08:51:38.057Z,12.60
2022-08-17T08:54:52.000Z,11.30
2022-08-17T08:57:46.143Z,8.40
2022-08-17T09:00:38.278Z,11.70
2022-08-17T09:03:53.124Z,10.50
2022-08-17T09:06:58.029Z,10.60
2022-08-17T09:09:59.001Z,8.60
2022-08-17T09:13:05.947Z,11.10
2022-08-17T09:16:06.951Z,7.50
2022-08-17T09:19:04.508Z,8.00
2022-08-17T09:21:55.837Z,8.70
2022-08-17T09:24:57.180Z,7.60
2022-08-17T09:27:53.762Z,9.00
2022-08-17T09:31:03.373Z,7.60
2022-08-17T09:33:51.523Z,18.80
2022-08-17T09:36:52.189Z,7.60
2022-08-17T09:42:50.596Z,6.50
2022-08-17T09:45:57.419Z,5.90
2022-08-17T09:48:57.936Z,11.30
2022-08-17T09:51:55.077Z,6.20
2022-08-17T09:54:51.951Z,6.40
2022-08-17T09:58:09.943Z,6.90
2022-08-17T10:01:11.578Z,9.50
2022-08-17T10:04:58.920Z,9.10
2022-08-17T10:08:15.598Z,6.00
2022-08-17T10:11:33.887Z,6.30
2022-08-17T10:18:21.579Z,6.10
2022-08-17T10:25:22.430Z,6.30
2022-08-17T10:28:42.195Z,5.90
2022-08-17T10:35:01.486Z,7.50
2022-08-17T10:38:05.411Z,6.30
2022-08-17T10:41:06.688Z,5.20
2022-08-17T10:44:37.539Z,6.10
2022-08-17T10:47:14.469Z,5.90
2022-08-17T10:50:39.473Z,6.00
2022-08-17T10:53:35.240Z,6.50
2022-08-17T10:56:24.156Z,6.10
2022-08-17T10:59:36.457Z,5.40
2022-08-17T11:02:50.358Z,10.00
2022-08-17T11:05:52.401Z,6.50
2022-08-17T11:08:58.875Z,6.70
2022-08-17T11:12:10.273Z,6.30
2022-08-17T11:15:24.876Z,5.90
2022-08-17T11:18:47.574Z,6.70
2022-08-17T11:22:03.555Z,6.10
2022-08-17T11:24:56.830Z,7.30
2022-08-17T11:27:50.127Z,6.10
2022-08-17T11:30:44.896Z,6.20
2022-08-17T11:33:41.691Z,5.50
2022-08-17T11:37:10.665Z,6.40
2022-08-17T11:40:16.828Z,5.70
2022-08-17T11:43:45.629Z,4.60
2022-08-17T11:47:18.756Z,5.50
2022-08-17T11:53:38.685Z,4.90
2022-08-17T11:56:33.071Z,9.90
2022-08-17T12:03:56.883Z,5.50
2022-08-17T12:06:54.782Z,5.50
2022-08-17T12:09:45.694Z,5.30
2022-08-17T12:12:36.076Z,6.50
2022-08-17T12:18:42.590Z,5.00
2022-08-17T12:21:52.878Z,5.30
2022-08-17T12:24:56.463Z,4.10
2022-08-17T12:28:05.173Z,5.10
2022-08-17T12:30:56.283Z,4.30
2022-08-17T12:33:44.944Z,4.80
2022-08-17T12:36:33.742Z,4.60
2022-08-17T12:39:26.062Z,5.40
2022-08-17T12:45:24.124Z,5.30
2022-08-17T12:48:14.392Z,4.30
2022-08-17T12:51:03.810Z,4.70
2022-08-17T12:53:55.691Z,6.00
2022-08-17T12:56:46.168Z,3.60
2022-08-17T12:59:34.382Z,5.50
2022-08-17T13:02:28.993Z,5.20
2022-08-17T13:05:21.236Z,6.10
2022-08-17T13:08:19.944Z,4.70
2022-08-17T13:11:20.299Z,5.10
2022-08-17T13:14:10.653Z,5.20
2022-08-17T13:17:01.844Z,4.40
2022-08-17T13:19:50.885Z,3.70
2022-08-17T13:22:44.540Z,3.80
2022-08-17T13:25:31.442Z,4.70
2022-08-17T13:28:35.801Z,3.90
2022-08-17T13:31:28.016Z,4.50
2022-08-17T13:34:33.379Z,4.60
2022-08-17T13:37:27.035Z,5.90
2022-08-17T13:40:20.345Z,12.30
2022-08-17T13:43:07.835Z,5.00
2022-08-17T13:46:08.463Z,5.40
2022-08-17T13:49:09.915Z,7.90
2022-08-17T13:51:57.062Z,4.80
2022-08-17T13:54:51.872Z,3.60
2022-08-17T13:57:47.167Z,4.10
2022-08-17T14:00:36.294Z,5.10
2022-08-17T14:03:24.406Z,3.60
2022-08-17T14:06:11.482Z,3.90
2022-08-17T14:09:09.410Z,4.70
2022-08-17T14:11:58.735Z,6.20
2022-08-17T14:14:45.878Z,4.20
2022-08-17T14:17:38.056Z,5.00
2022-08-17T14:20:25.737Z,7.80
2022-08-17T14:23:13.408Z,7.20
2022-08-17T14:26:00.498Z,4.40
2022-08-17T14:28:54.589Z,4.90
2022-08-17T14:31:48.493Z,4.40
2022-08-17T14:34:41.116Z,4.00
2022-08-17T14:37:29.540Z,4.80
2022-08-17T14:40:20.815Z,5.20
2022-08-17T14:43:08.286Z,4.10
2022-08-17T14:45:54.821Z,6.40
2022-08-17T14:48:45.793Z,4.90
2022-08-17T14:51:32.842Z,5.50
2022-08-17T14:54:33.147Z,5.10
2022-08-17T14:57:33.076Z,10.40
2022-08-17T15:00:21.126Z,4.60
2022-08-17T15:03:07.934Z,4.90
2022-08-17T15:05:55.396Z,10.00
2022-08-17T15:08:42.912Z,5.00
2022-08-17T15:11:31.542Z,6.10
2022-08-17T15:14:18.306Z,6.00
2022-08-17T15:17:05.802Z,4.00
2022-08-17T15:19:53.760Z,3.90
2022-08-17T15:22:42.395Z,4.90
2022-08-17T15:25:32.193Z,5.50
2022-08-17T15:28:22.902Z,5.00
2022-08-17T15:31:09.628Z,5.40
2022-08-17T15:33:56.577Z,5.60
2022-08-17T15:36:49.145Z,12.80
2022-08-17T15:39:36.645Z,5.00
2022-08-17T15:42:23.745Z,5.30
2022-08-17T15:45:13.860Z,4.40
2022-08-17T15:48:00.902Z,6.30
2022-08-17T15:50:47.845Z,4.50
2022-08-17T15:53:35.591Z,5.00
2022-08-17T15:56:24.332Z,4.90
2022-08-17T15:59:15.720Z,5.20
2022-08-17T16:03:15.957Z,4.70
2022-08-17T16:05:28.681Z,4.30
2022-08-17T16:08:21.243Z,4.60
2022-08-17T16:11:09.011Z,4.50
2022-08-17T16:13:56.219Z,4.50
2022-08-17T16:16:43.170Z,5.80
2022-08-17T16:19:30.868Z,5.70
2022-08-17T16:22:30.321Z,7.10
2022-08-17T16:25:20.893Z,7.00
2022-08-17T16:28:10.112Z,7.00
2022-08-17T16:31:09.387Z,5.50
2022-08-17T16:34:03.749Z,6.90
2022-08-17T16:37:05.745Z,6.60
2022-08-17T16:39:52.658Z,6.30
2022-08-17T16:42:40.495Z,6.60
2022-08-17T16:45:29.373Z,6.40
2022-08-17T16:48:16.044Z,7.50
2022-08-17T16:51:04.418Z,6.60
2022-08-17T16:53:57.790Z,6.60
2022-08-17T16:56:46.753Z,6.90
2022-08-17T16:59:41.914Z,8.70
2022-08-17T17:02:36.526Z,7.40
2022-08-17T17:05:38.353Z,6.60
2022-08-17T17:08:44.508Z,7.70
2022-08-17T17:11:48.377Z,6.80
2022-08-17T17:14:43.366Z,6.90
2022-08-17T17:17:40.506Z,6.90
2022-08-17T17:20:36.545Z,7.50
2022-08-17T17:23:44.996Z,7.50
2022-08-17T17:26:55.432Z,9.70
2022-08-17T17:29:54.578Z,7.50
2022-08-17T17:33:23.492Z,7.00
2022-08-17T17:36:25.636Z,7.10
2022-08-17T17:39:17.451Z,7.50
2022-08-17T17:42:09.189Z,10.00
2022-08-17T17:45:22.206Z,7.90
2022-08-17T17:48:09.113Z,7.30
2022-08-17T17:52:06.566Z,10.00
2022-08-17T17:54:53.693Z,8.00
2022-08-17T17:57:50.532Z,8.10
2022-08-17T18:00:42.374Z,8.50
2022-08-17T18:03:52.979Z,11.10
2022-08-17T18:06:55.940Z,8.00
2022-08-17T18:10:01.457Z,7.10
2022-08-17T18:13:08.180Z,6.80
2022-08-17T18:16:00.681Z,8.30
2022-08-17T18:18:50.213Z,7.80
2022-08-17T18:21:40.160Z,8.40
2022-08-17T18:24:37.854Z,10.70
2022-08-17T18:27:34.614Z,8.30
2022-08-17T18:30:21.278Z,10.40
2022-08-17T18:33:26.620Z,8.00
2022-08-17T18:36:26.786Z,9.60
2022-08-17T18:39:19.390Z,7.20
2022-08-17T18:42:30.289Z,9.10
2022-08-17T18:45:51.630Z,9.20
2022-08-17T18:48:59.891Z,7.70
2022-08-17T18:51:46.928Z,9.50
2022-08-17T18:54:36.174Z,8.10
2022-08-17T18:57:31.520Z,7.20
2022-08-17T19:00:30.155Z,8.30
2022-08-17T19:03:18.283Z,10.10
2022-08-17T19:06:39.770Z,10.10
2022-08-17T19:09:33.234Z,13.30
2022-08-17T19:12:34.996Z,9.30
2022-08-17T19:15:35.899Z,10.00
2022-08-17T19:18:30.226Z,11.80
2022-08-17T19:21:40.486Z,8.50
2022-08-17T19:24:30.832Z,9.20
2022-08-17T19:27:41.889Z,10.10
2022-08-17T19:30:33.604Z,10.70
2022-08-17T19:33:20.485Z,10.60
2022-08-17T19:36:28.505Z,11.10
2022-08-17T19:39:37.813Z,8.80
2022-08-17T19:43:03.371Z,8.90
2022-08-17T19:46:35.571Z,10.30
2022-08-17T19:49:40.730Z,10.20
2022-08-17T19:53:03.935Z,10.00
2022-08-17T19:55:56.749Z,10.40
2022-08-17T19:59:02.549Z,11.90
2022-08-17T20:01:54.208Z,11.80
2022-08-17T20:04:45.304Z,12.00
2022-08-17T20:07:44.700Z,12.60
2022-08-17T20:10:59.367Z,13.70
2022-08-17T20:13:55.238Z,12.30
2022-08-17T20:16:42.275Z,12.70
2022-08-17T20:19:42.403Z,12.90
2022-08-17T20:22:49.608Z,13.60
2022-08-17T20:25:46.455Z,11.20
2022-08-17T20:28:35.938Z,13.40
2022-08-17T20:31:40.973Z,11.80
2022-08-17T20:34:33.520Z,12.70
2022-08-17T20:37:24.036Z,12.30
2022-08-17T20:40:18.316Z,17.10
2022-08-17T20:43:43.431Z,12.40
2022-08-17T20:46:47.793Z,13.90
2022-08-17T20:49:52.554Z,15.60
2022-08-17T20:52:50.902Z,16.50
2022-08-17T20:55:52.524Z,16.60
2022-08-17T20:58:46.612Z,16.10
2022-08-17T21:01:39.902Z,18.60
2022-08-17T21:04:47.493Z,15.30
2022-08-17T21:07:42.969Z,16.40
2022-08-17T21:10:36.102Z,18.80
2022-08-17T21:13:50.180Z,14.80
2022-08-17T21:16:48.512Z,14.60
2022-08-17T21:20:11.539Z,15.90
2022-08-17T21:23:38.389Z,16.00
2022-08-17T21:26:31.751Z,15.60
2022-08-17T21:29:32.368Z,16.90
2022-08-17T21:32:30.139Z,15.10
2022-08-17T21:35:28.259Z,26.30
2022-08-17T21:38:19.578Z,18.20
2022-08-17T21:41:06.388Z,17.20
2022-08-17T21:44:01.940Z,15.90
2022-08-17T21:46:51.743Z,16.40
2022-08-17T21:49:38.266Z,15.50
2022-08-17T21:52:27.683Z,16.50
2022-08-17T21:55:21.652Z,20.10
2022-08-17T21:58:29.141Z,18.00
2022-08-17T22:01:25.997Z,15.80
2022-08-17T22:04:12.728Z,13.90
2022-08-17T22:07:06.671Z,14.60
2022-08-17T22:09:53.434Z,15.50
2022-08-17T22:12:42.795Z,15.80
2022-08-17T22:15:29.743Z,19.10
2022-08-17T22:18:25.360Z,16.10
2022-08-17T22:21:12.316Z,15.00
2022-08-17T22:24:06.565Z,16.30
2022-08-17T22:27:03.862Z,16.60
2022-08-17T22:29:57.852Z,16.80
2022-08-17T22:32:47.767Z,16.60
2022-08-17T22:35:42.850Z,16.60
2022-08-17T22:38:31.201Z,16.40
2022-08-17T22:41:37.761Z,16.90
2022-08-17T22:44:35.650Z,15.40
2022-08-17T22:47:38.839Z,14.20
2022-08-17T22:50:29.657Z,13.70
2022-08-17T22:53:38.947Z,17.00
2022-08-17T22:56:45.188Z,16.50
2022-08-17T22:59:46.322Z,14.90
2022-08-17T23:02:35.019Z,15.30
2022-08-17T23:05:24.194Z,17.00
2022-08-17T23:08:12.803Z,18.10
2022-08-17T23:11:00.337Z,16.60
2022-08-17T23:13:47.193Z,19.20
2022-08-17T23:16:33.642Z,17.00
2022-08-17T23:19:21.483Z,17.80
2022-08-17T23:22:10.225Z,13.40
2022-08-17T23:24:58.449Z,15.10
2022-08-17T23:27:45.341Z,15.40
2022-08-17T23:30:37.216Z,13.90
2022-08-17T23:33:31.018Z,16.70
2022-08-17T23:36:18.370Z,14.40
2022-08-17T23:39:07.011Z,15.10
2022-08-17T23:41:54.117Z,15.50
2022-08-17T23:44:43.783Z,14.80
2022-08-17T23:47:30.463Z,14.50
2022-08-17T23:50:18.595Z,14.60
2022-08-17T23:53:06.518Z,15.70
2022-08-17T23:56:09.297Z,13.80
2022-08-17T23:58:58.545Z,14.80
